Luzerne, Iowa
Current Conditions -  °F | °C
As of 8:15 AM on Monday 26 Jan 2015 (Local Time) from KVTI Reporting Station
Light Snow Light Snow  
Wind Chill: 18°   Ceiling: 1700
Heat Index: 28°   Visibility: 10mi
Dew Point: 24°   Wind: 12mph
Humidity: 86%   Direction: 170°S
Pressure: 29.84"   Gusts: NA
Location:  41.9°N, 92.18°W
Report Text: KVTI 261415Z AUTO 17010KT 10SM -SN BKN017 M02/M04 A2984 RMK AO2 T10231043
Loading
Personal Weather Stations






























Interactive Weather Map New forecast layout! Learn more

10-Day Weather Forecast

Advertisements
Track Severe Weather on mobile